Bookmark and Share
Track history (hours):
 

Gulfstream Express

Last reported at 2014-Apr-19 15:33 UTC. Time now 2014-Apr-21 03:08 UTC.
Position N 26°06' W 079°28'.

Length 70 m; draft 9.3 m.

Type: Cargo ship. MMSI: 371114000.

NotesDate/timePositionNaut miles runAvg speedWind from/ knotsBaromVisibWave heightAir tempDewpointWater temp
2014-Apr-19 15:33N 26°06' W 079°28'1111.0
2014-Apr-19 14:33N 26°06' W 079°40'1111.2
2014-Apr-19 13:33N 26°06' W 079°52'1111.3
2014-Apr-19 12:33N 26°06' W 080°05'3 3.2
2014-Apr-19 11:33N 26°04' W 080°08'0 0.0
2014-Apr-19 10:33N 26°04' W 080°08'0 0.0
2014-Apr-19 09:28N 26°04' W 080°08'0 0.0
2014-Apr-19 08:16N 26°04' W 080°08'0 0.0
2014-Apr-19 07:31N 26°04' W 080°08'0 0.0
2014-Apr-19 06:31N 26°04' W 080°08'0 0.0
2014-Apr-19 05:23N 26°04' W 080°08'0 0.0
2014-Apr-19 04:25N 26°04' W 080°08'0 0.0
2014-Apr-19 03:26N 26°04' W 080°08'0 0.0
2014-Apr-19 02:25N 26°04' W 080°08'0 0.0
2014-Apr-19 01:29N 26°04' W 080°08'0 0.0
2014-Apr-19 00:29N 26°04' W 080°08'0 0.0
2014-Apr-18 23:32N 26°04' W 080°08'0 0.0
2014-Apr-18 22:32N 26°04' W 080°08'0 0.0
2014-Apr-18 21:31N 26°04' W 080°08'0 0.0
2014-Apr-18 20:31N 26°04' W 080°08'0 0.0
2014-Apr-18 19:31N 26°04' W 080°08'0 0.0
2014-Apr-18 18:32N 26°04' W 080°08'0 0.0
2014-Apr-18 17:31N 26°04' W 080°08'0 0.0
2014-Apr-18 16:22N 26°04' W 080°08'0 0.0
2014-Apr-18 15:27N 26°04' W 080°08'0 0.0
2014-Apr-18 14:27N 26°04' W 080°08'0 0.0
2014-Apr-18 13:30N 26°04' W 080°08'0 0.0
2014-Apr-18 12:32N 26°04' W 080°08'1 0.6
2014-Apr-18 11:34N 26°04' W 080°07'4 3.1
2014-Apr-18 10:22N 26°05' W 080°03'3 3.4
2014-Apr-18 09:34N 26°05' W 080°00'8 7.8
2014-Apr-18 08:33N 26°05' W 079°52'8 8.0
2014-Apr-18 07:33N 26°04' W 079°43'7 7.1
2014-Apr-18 06:34N 26°03' W 079°35'  
2014-Apr-12 16:08N 26°06' W 079°26'610.5
2014-Apr-12 15:33N 26°06' W 079°33'1010.1
2014-Apr-12 14:33N 26°06' W 079°44'1010.2
2014-Apr-12 13:33N 26°06' W 079°56'1010.0
2014-Apr-12 12:33N 26°06' W 080°07'2 2.3
2014-Apr-12 11:33N 26°04' W 080°08'0 0.0
2014-Apr-12 10:22N 26°04' W 080°08'0 0.0
2014-Apr-12 09:25N 26°04' W 080°08'0 0.0
2014-Apr-12 08:25N 26°04' W 080°08'0 0.0
2014-Apr-12 07:25N 26°04' W 080°08'0 0.0
2014-Apr-12 06:28N 26°04' W 080°08'0 0.0
2014-Apr-12 05:28N 26°04' W 080°08'0 0.0
2014-Apr-12 04:31N 26°04' W 080°08'0 0.0
2014-Apr-12 03:31N 26°04' W 080°08'0 0.0
2014-Apr-12 02:31N 26°04' W 080°08'0 0.0
2014-Apr-12 01:31N 26°04' W 080°08'0 0.0
2014-Apr-12 00:31N 26°04' W 080°08'0 0.0
2014-Apr-11 23:31N 26°04' W 080°08'0 0.0
2014-Apr-11 22:31N 26°04' W 080°08'0 0.0
2014-Apr-11 21:22N 26°04' W 080°08'0 0.0
2014-Apr-11 20:22N 26°04' W 080°08'0 0.0
2014-Apr-11 19:25N 26°04' W 080°08'0 0.0
2014-Apr-11 18:25N 26°04' W 080°08'0 0.0
2014-Apr-11 17:22N 26°04' W 080°08'0 0.0
2014-Apr-11 16:28N 26°04' W 080°08'0 0.0
2014-Apr-11 15:26N 26°04' W 080°08'0 0.0
2014-Apr-11 14:26N 26°04' W 080°08'0 0.0
2014-Apr-11 13:26N 26°04' W 080°08'0 0.0
2014-Apr-11 12:29N 26°04' W 080°08'1 1.2
2014-Apr-11 11:33N 26°04' W 080°07'5 4.9
2014-Apr-11 10:33N 26°05' W 080°02'7 7.2
2014-Apr-11 09:33N 26°05' W 079°54'7 7.0
2014-Apr-11 08:33N 26°04' W 079°46'7 6.8
2014-Apr-11 07:33N 26°04' W 079°38'7 7.0
2014-Apr-11 06:33N 26°03' W 079°31'  

Dump ship's entire track history

sailing weather and tide predictions

Gulfstream Express — 3EQK2 — position and weather